Time;durP1;ratioP1;P1;durP2;ratioP2;P2;SDS_P1;SDS_P2;PMS_P1;PMS_P2;Temp;Humidity;BMP_temperature;BMP_pressure;BME280_temperature;BME280_humidity;BME280_pressure;Samples;Min_cycle;Max_cycle;Signal;HPM_P1;HPM_P2
2022/10/25 00:02:07;;;;;;;;;;;;;;;8.44;100.00;97503.00;5064939;28;20287;-57
2022/10/25 00:04:34;;;;;;;;;;;;;;;8.24;100.00;97495.25;5064581;28;19934;-57
2022/10/25 00:07:00;;;;;;;;;;;;;;;8.31;100.00;97496.78;5065656;28;19971;-58
2022/10/25 00:09:26;;;;;;;;;;;;;;;8.61;100.00;97491.50;5064777;28;20011;-58
2022/10/25 00:11:53;;;;;;;;;;;;;;;8.60;100.00;97506.91;5064712;28;20159;-58
2022/10/25 00:14:19;;;;;;;;;;;;;;;8.53;100.00;97496.22;5062537;28;19931;-58
2022/10/25 00:16:46;;;;;;;;;;;;;;;8.49;100.00;97496.91;5068873;28;19970;-58
2022/10/25 00:19:13;;;;;;;;;;;;;;;8.19;100.00;97494.06;5069341;28;19974;-58
2022/10/25 00:21:39;;;;;;;;;;;;;;;8.27;100.00;97497.47;5057646;28;20292;-57
2022/10/25 00:24:06;;;;;;;;;;;;;;;8.30;100.00;97497.81;5049659;28;20016;-57
2022/10/25 00:26:33;;;;;;;;;;;;;;;8.42;100.00;97505.09;5049279;28;20345;-58
2022/10/25 00:29:00;;;;;;;;;;;;;;;8.41;100.00;97501.56;5047164;28;19932;-58
2022/10/25 00:31:27;;;;;;;;;;;;;;;8.45;100.00;97500.06;5048930;28;20465;-58
2022/10/25 00:33:53;;;;;;;;;;;;;;;8.61;100.00;97505.84;5049249;28;20003;-58
2022/10/25 00:36:21;;;;;;;;;;;;;;;8.36;100.00;97489.88;5048608;28;19931;-59
2022/10/25 00:38:48;;;;;;;;;;;;;;;8.35;100.00;97494.44;5049338;28;19963;-58
2022/10/25 00:41:16;;;;;;;;;;;;;;;8.31;100.00;97495.97;5048702;28;19954;-58
2022/10/25 00:43:46;;;;;;;;;;;;;;;8.49;100.00;97496.91;5048845;28;19928;-58
2022/10/25 00:46:27;;;;;;;;;;;;;;;8.44;100.00;97501.13;5049081;28;19956;-58
2022/10/25 00:49:14;;;;;;;;;;;;;;;8.48;100.00;97496.09;5048682;28;20426;-58
2022/10/25 00:51:44;;;;;;;;;;;;;;;8.44;100.00;97494.91;5047567;28;20466;-58
2022/10/25 00:54:13;;;;;;;;;;;;;;;8.24;100.00;97493.38;5058324;28;20322;-57
2022/10/25 00:56:41;;;;;;;;;;;;;;;8.35;100.00;97505.22;5068263;28;19925;-58
2022/10/25 00:59:11;;;;;;;;;;;;;;;8.35;100.00;97493.59;5068221;28;19925;-58
2022/10/25 01:01:37;;;;;;;;;;;;;;;8.33;100.00;97502.75;5068278;28;19970;-58
2022/10/25 01:04:05;;;;;;;;;;;;;;;8.41;100.00;97498.88;5057284;28;19924;-58
2022/10/25 01:06:35;;;;;;;;;;;;;;;8.28;100.00;97505.34;5060506;28;19971;-58
2022/10/25 01:09:02;;;;;;;;;;;;;;;8.15;100.00;97490.19;5083960;28;20064;-58
2022/10/25 01:11:29;;;;;;;;;;;;;;;8.13;100.00;97491.47;5068595;28;19960;-57
2022/10/25 01:13:56;;;;;;;;;;;;;;;8.27;100.00;97489.38;5068450;28;19932;-58
2022/10/25 01:16:41;;;;;;;;;;;;;;;8.18;100.00;97492.44;5068760;28;20395;-58
2022/10/25 01:19:23;;;;;;;;;;;;;;;8.03;100.00;97482.09;5066903;28;20415;-58
2022/10/25 01:21:55;;;;;;;;;;;;;;;8.01;100.00;97484.22;5066832;28;20024;-60
2022/10/25 01:24:27;;;;;;;;;;;;;;;7.92;100.00;97483.72;5068174;28;20202;-58
2022/10/25 01:27:09;;;;;;;;;;;;;;;7.91;100.00;97490.19;5067728;28;19925;-59
2022/10/25 01:29:59;;;;;;;;;;;;;;;7.87;100.00;97491.69;5066418;28;19963;-58
2022/10/25 01:32:44;;;;;;;;;;;;;;;7.92;100.00;97497.22;5047610;28;19990;-58
2022/10/25 01:35:23;;;;;;;;;;;;;;;7.72;100.00;97494.00;5048542;28;20019;-58
2022/10/25 01:38:09;;;;;;;;;;;;;;;7.66;100.00;97496.56;5048345;28;19931;-58
2022/10/25 01:40:55;;;;;;;;;;;;;;;7.67;100.00;97500.88;5047854;28;19975;-58
2022/10/25 01:43:25;;;;;;;;;;;;;;;7.57;100.00;97503.34;5065071;28;20015;-58
2022/10/25 01:45:55;;;;;;;;;;;;;;;7.64;100.00;97497.84;5068142;28;20403;-58
2022/10/25 01:48:25;;;;;;;;;;;;;;;7.62;100.00;97503.47;5067754;28;19925;-60
2022/10/25 01:50:51;;;;;;;;;;;;;;;7.61;100.00;97498.28;5062898;28;19975;-58
2022/10/25 01:53:18;;;;;;;;;;;;;;;7.60;100.00;97496.66;5051436;28;19931;-59
2022/10/25 01:55:56;;;;;;;;;;;;;;;7.63;100.00;97502.41;5067605;28;20590;-58
2022/10/25 01:58:42;;;;;;;;;;;;;;;7.44;100.00;97507.03;5067835;28;20402;-58
2022/10/25 02:01:25;;;;;;;;;;;;;;;7.32;100.00;97506.97;5082637;28;19956;-57
2022/10/25 02:03:53;;;;;;;4.22;1.60;;;;;;;7.40;100.00;97509.34;5067749;28;19924;-58
2022/10/25 02:06:37;;;;;;;11.82;2.42;;;;;;;7.57;100.00;97502.50;5066891;28;20503;-58
2022/10/25 02:09:19;;;;;;;7.05;2.33;;;;;;;7.60;100.00;97504.75;5066965;28;20128;-58
2022/10/25 02:11:47;;;;;;;8.00;2.78;;;;;;;8.06;100.00;97492.44;5066666;28;20231;-58
2022/10/25 02:14:36;;;;;;;5.85;2.30;;;;;;;8.25;100.00;97500.41;5067258;28;20067;-58
2022/10/25 02:17:18;;;;;;;7.87;2.87;;;;;;;8.35;100.00;97499.84;5066379;28;20086;-58
2022/10/25 02:19:50;;;;;;;7.93;2.95;;;;;;;8.45;100.00;97499.25;5066215;28;20079;-58
2022/10/25 02:22:18;;;;;;;;;;;;;;;8.48;100.00;97497.97;5050403;28;20036;-58
2022/10/25 02:24:45;;;;;;;;;;;;;;;8.69;100.00;97499.25;5047293;28;19921;-57
2022/10/25 02:27:12;;;;;;;;;;;;;;;8.76;100.00;97491.84;5046608;28;19920;-58
2022/10/25 02:29:40;;;;;;;;;;;;;;;8.87;100.00;97500.16;5047042;28;19921;-58
2022/10/25 02:32:07;;;;;;;;;;;;;;;8.99;100.00;97487.47;5046752;28;19952;-58
2022/10/25 02:34:33;;;;;;;;;;;;;;;9.05;100.00;97481.13;5046780;28;20367;-58
2022/10/25 02:37:00;;;;;;;;;;;;;;;9.16;100.00;97476.72;5046282;28;19971;-57
2022/10/25 02:39:27;;;;;;;;;;;;;;;9.29;100.00;97474.81;5046749;28;19927;-57
2022/10/25 02:41:57;;;;;;;;;;;;;;;9.24;100.00;97475.53;5051195;28;19946;-58
2022/10/25 02:44:23;;;;;;;;;;;;;;;9.14;100.00;97465.34;5065055;28;19995;-58
2022/10/25 02:46:49;;;;;;;;;;;;;;;9.04;100.00;97467.84;5066156;28;19982;-58
2022/10/25 02:49:16;;;;;;;;;;;;;;;8.84;100.00;97469.06;5079380;28;20196;-58
2022/10/25 02:51:42;;;;;;;;;;;;;;;8.85;100.00;97470.72;5054727;28;20511;-58
2022/10/25 02:54:08;;;;;;;;;;;;;;;8.68;100.00;97467.94;5057528;28;20383;-59
2022/10/25 02:56:36;;;;;;;;;;;;;;;8.60;100.00;97471.81;5066863;28;19928;-59
2022/10/25 02:59:03;;;;;;;;;;;;;;;8.43;100.00;97471.66;5066916;28;19927;-58
2022/10/25 03:01:29;;;;;;;;;;;;;;;8.53;100.00;97481.91;5066559;28;20032;-58
2022/10/25 03:03:56;;;;;;;;;;;;;;;8.42;100.00;97481.66;5066446;28;20010;-58
2022/10/25 03:06:22;;;;;;;;;;;;;;;8.16;100.00;97485.63;5066761;28;20257;-58
2022/10/25 03:08:49;;;;;;;;;;;;;;;8.14;100.00;97493.16;5066233;28;19958;-58
2022/10/25 03:11:16;;;;;;;;;;;;;;;8.21;100.00;97493.84;5066289;28;19924;-59
2022/10/25 03:13:42;;;;;;;;;;;;;;;8.11;100.00;97483.63;5046505;28;20376;-58
2022/10/25 03:16:08;;;;;;;;;;;;;;;8.00;100.00;97489.84;5046554;28;19921;-58
2022/10/25 03:18:35;;;;;;;;;;;;;;;8.18;100.00;97500.53;5045420;28;19947;-57
2022/10/25 03:21:02;;;;;;;;;;;;;;;8.13;100.00;97491.47;5050843;28;19942;-58
2022/10/25 03:23:29;;;;;;;;;;;;;;;7.94;100.00;97496.97;5066269;28;20019;-58
2022/10/25 03:25:56;;;;;;;;;;;;;;;8.06;100.00;97499.69;5066155;28;19924;-58
2022/10/25 03:28:23;;;;;;;;;;;;;;;8.07;100.00;97504.84;5066254;28;19950;-57
2022/10/25 03:30:49;;;;;;;5.93;2.67;;;;;;;7.80;100.00;97491.78;5065384;28;19956;-57
2022/10/25 03:33:16;;;;;;;7.43;2.38;;;;;;;7.65;100.00;97491.41;5062566;28;20079;-57
2022/10/25 03:35:42;;;;;;;7.57;2.58;;;;;;;7.76;100.00;97496.00;5065488;28;20448;-57
2022/10/25 03:38:09;;;;;;;7.32;2.67;;;;;;;7.80;100.00;97505.28;5065465;28;20037;-58
2022/10/25 03:40:36;;;;;;;8.05;2.90;;;;;;;7.80;100.00;97499.06;5065483;28;20123;-59
2022/10/25 03:43:02;;;;;;;4.53;2.55;;;;;;;7.77;100.00;97504.91;5065504;28;20112;-57
2022/10/25 03:45:29;;;;;;;6.35;2.70;;;;;;;7.74;100.00;97503.47;5065641;28;20526;-58
2022/10/25 03:47:55;;;;;;;5.80;2.67;;;;;;;7.80;100.00;97507.97;5066595;28;20055;-58
2022/10/25 03:50:22;;;;;;;4.90;2.70;;;;;;;7.85;100.00;97517.25;5068966;28;20124;-58
2022/10/25 03:52:48;;;;;;;7.20;2.92;;;;;;;8.01;100.00;97515.75;5049248;28;20479;-58
2022/10/25 03:55:15;;;;;;;;;;;;;;;8.19;100.00;97512.94;5069310;28;20036;-58
2022/10/25 03:57:41;;;;;;;;;;;;;;;8.22;100.00;97516.25;5067876;28;19986;-58
2022/10/25 04:00:08;;;;;;;;;;;;;;;8.35;100.00;97515.19;5069515;28;19927;-58
2022/10/25 04:02:37;;;;;;;;;;;;;;;8.43;100.00;97509.44;5062849;28;19931;-58
2022/10/25 04:05:04;;;;;;;;;;;;;;;8.51;100.00;97517.19;5065475;28;19970;-58
2022/10/25 04:07:30;;;;;;;;;;;;;;;8.65;100.00;97516.97;5066061;28;20387;-58
2022/10/25 04:09:57;;;;;;;;;;;;;;;8.73;100.00;97513.13;5062870;28;20627;-58
2022/10/25 04:12:23;;;;;;;;;;;;;;;8.85;100.00;97514.72;5066871;28;20015;-58
2022/10/25 04:14:50;;;;;;;;;;;;;;;8.97;100.00;97511.19;5067599;28;20032;-58
2022/10/25 04:17:16;;;;;;;;;;;;;;;8.91;100.00;97506.72;5067178;28;19925;-58
2022/10/25 04:19:43;;;;;;;;;;;;;;;9.08;100.00;97499.56;5063122;28;21423;-58
2022/10/25 04:22:10;;;;;;;;;;;;;;;9.16;100.00;97501.06;5066928;28;20011;-58
2022/10/25 04:24:37;;;;;;;;;;;;;;;9.21;100.00;97486.81;5066711;28;19931;-58
2022/10/25 04:27:03;;;;;;;;;;;;;;;9.32;100.00;97482.44;5067802;28;20414;-58
2022/10/25 04:29:30;;;;;;;;;;;;;;;9.35;100.00;97476.53;5067141;28;19932;-58
2022/10/25 04:31:56;;;;;;;;;;;;;;;9.40;100.00;97483.94;5060447;28;20011;-58
2022/10/25 04:34:22;;;;;;;;;;;;;;;9.45;100.00;97484.84;5063626;28;19926;-59
2022/10/25 04:36:49;;;;;;;;;;;;;;;9.45;100.00;97478.63;5057697;28;19924;-59
2022/10/25 04:39:15;;;;;;;;;;;;;;;9.44;100.00;97485.91;5067276;28;20031;-58
2022/10/25 04:41:41;;;;;;;;;;;;;;;9.45;100.00;97482.16;5065989;28;19930;-58
2022/10/25 04:44:08;;;;;;;;;;;;;;;9.48;100.00;97476.25;5065721;28;20293;-59
2022/10/25 04:46:34;;;;;;;;;;;;;;;9.52;100.00;97491.97;5057052;28;19963;-58
2022/10/25 04:49:01;;;;;;;;;;;;;;;9.45;100.00;97482.16;5066746;28;19956;-58
2022/10/25 04:51:27;;;;;;;;;;;;;;;9.39;100.00;97480.41;5066460;28;19921;-58
2022/10/25 04:53:54;;;;;;;;;;;;;;;9.36;100.00;97487.13;5065839;28;20214;-58
2022/10/25 04:56:21;;;;;;;;;;;;;;;9.36;100.00;97487.13;5063465;28;19924;-58
2022/10/25 04:58:47;;;;;;;;;;;;;;;9.31;100.00;97484.31;5063411;28;19978;-58
2022/10/25 05:01:15;;;;;;;;;;;;;;;9.24;100.00;97481.75;5066077;28;19921;-59
2022/10/25 05:03:41;;;;;;;;;;;;;;;9.26;100.00;97486.09;5066098;28;19924;-58
2022/10/25 05:06:19;;;;;;;;;;;;;;;9.31;100.00;97481.63;5066418;28;20192;-58
2022/10/25 05:08:47;;;;;;;;;;;;;;;9.33;100.00;97495.69;5056917;28;20018;-58
2022/10/25 05:11:14;;;;;;;;;;;;;;;9.33;100.00;97495.69;5061041;28;19947;-58
2022/10/25 05:13:42;;;;;;;;;;;;;;;9.35;100.00;97499.00;5055586;28;19924;-58
2022/10/25 05:16:11;;;;;;;;;;;;;;;9.36;100.00;97506.03;5057341;28;19959;-58
2022/10/25 05:18:37;;;;;;;;;;;;;;;9.41;100.00;97499.09;5065851;28;20203;-57
2022/10/25 05:21:04;;;;;;;;;;;;;;;9.38;100.00;97500.38;5056237;28;19977;-58
2022/10/25 05:23:32;;;;;;;;;;;;;;;9.35;100.00;97496.28;5053012;28;20388;-58
2022/10/25 05:26:09;;;;;;;;;;;;;;;9.34;100.00;97496.53;5051182;28;19978;-58
2022/10/25 05:28:36;;;;;;;;;;;;;;;9.45;100.00;97500.25;5051445;28;20084;-58
2022/10/25 05:31:06;;;;;;;;;;;;;;;9.46;100.00;97501.88;5053536;28;19924;-59
2022/10/25 05:33:33;;;;;;;;;;;;;;;9.39;100.00;97507.41;5054463;28;19925;-58
2022/10/25 05:36:00;;;;;;;;;;;;;;;9.42;100.00;97504.25;5052126;28;19934;-58
2022/10/25 05:38:26;;;;;;;;;;;;;;;9.49;100.00;97501.41;5050472;28;19925;-57
2022/10/25 05:40:57;;;;;;;;;;;;;;;9.50;100.00;97503.88;5051254;28;20400;-58
2022/10/25 05:43:25;;;;;;;;;;;;;;;9.59;100.00;97506.19;5054105;28;20587;-58
2022/10/25 05:45:59;;;;;;;;;;;;;;;9.53;100.00;97502.56;5052840;28;19925;-58
2022/10/25 05:48:25;;;;;;;;;;;;;;;9.57;100.00;97503.72;5056355;28;19974;-58
2022/10/25 05:50:52;;;;;;;;;;;;;;;9.66;100.00;97506.84;5052210;28;19931;-58
2022/10/25 05:53:43;;;;;;;;;;;;;;;9.63;100.00;97510.03;5054944;28;19928;-58
2022/10/25 05:56:10;;;;;;;;;;;;;;;9.60;100.00;97508.66;5050013;28;20256;-58
2022/10/25 05:58:36;;;;;;;;;;;;;;;9.55;100.00;97518.53;5053118;28;20007;-58
2022/10/25 06:01:03;;;;;;;;;;;;;;;9.58;100.00;97518.06;5054383;28;20183;-58
2022/10/25 06:03:29;;;;;;;;;;;;;;;9.63;100.00;97520.84;5062128;28;19924;-58
2022/10/25 06:05:59;;;;;;;;;;;;;;;9.61;100.00;97514.84;5063911;28;19924;-58
2022/10/25 06:08:26;;;;;;;;;;;;;;;9.58;100.00;97518.06;5064001;28;19928;-58
2022/10/25 06:10:52;;;;;;;;;;;;;;;9.53;100.00;97513.38;5064131;28;19951;-59
2022/10/25 06:13:19;;;;;;;;;;;;;;;9.60;100.00;97518.63;5064885;28;20533;-59
2022/10/25 06:15:45;;;;;;;;;;;;;;;9.56;100.00;97518.31;5064179;28;20018;-59
2022/10/25 06:18:12;;;;;;;;;;;;;;;9.54;100.00;97523.13;5062516;28;20247;-58
2022/10/25 06:20:38;;;;;;;;;;;;;;;9.61;100.00;97525.66;5062574;28;19927;-57
2022/10/25 06:23:09;;;;;;;;;;;;;;;9.69;100.00;97533.38;5064462;28;20456;-58
2022/10/25 06:25:36;;;;;;;;;;;;;;;9.69;100.00;97538.78;5064989;28;19924;-58
2022/10/25 06:28:03;;;;;;;;;;;;;;;9.73;100.00;97547.25;5064841;28;19956;-58
2022/10/25 06:30:30;;;;;;;;;;;;;;;9.63;100.00;97559.50;5064154;28;19962;-59
2022/10/25 06:33:01;;;;;;;;;;;;;;;9.55;100.00;97549.06;5065625;28;19924;-58
2022/10/25 06:35:28;;;;;;;;;;;;;;;9.36;100.00;97560.06;5065085;28;19935;-58
2022/10/25 06:38:00;;;;;;;;;;;;;;;9.34;100.00;97566.78;5046849;28;20388;-58
2022/10/25 06:40:27;;;;;;;;;;;;;;;9.34;100.00;97569.47;5046614;28;20007;-58
2022/10/25 06:42:54;;;;;;;;;;;;;;;9.26;100.00;97567.16;5059549;28;19924;-59
2022/10/25 06:45:21;;;;;;;;;;;;;;;9.37;100.00;97583.31;5067082;28;20027;-58
2022/10/25 06:47:48;;;;;;;;;;;;;;;9.54;100.00;97579.06;5052697;28;20003;-59
2022/10/25 06:50:14;;;;;;;;;;;;;;;9.59;100.00;97587.28;5064207;28;20047;-59
2022/10/25 06:52:41;;;;;;;;;;;;;;;9.62;100.00;97586.81;5064572;28;19931;-59
2022/10/25 06:55:07;;;;;;;;;;;;;;;9.75;100.00;97586.53;5064765;28;20582;-59
2022/10/25 06:57:34;;;;;;;;;;;;;;;9.85;100.00;97591.28;5062300;28;19924;-60
2022/10/25 07:00:00;;;;;;;;;;;;;;;9.92;100.00;97593.03;5063039;28;20260;-59
2022/10/25 07:02:31;;;;;;;;;;;;;;;9.84;100.00;97600.47;5061151;28;19968;-58
2022/10/25 07:04:58;;;;;;;;;;;;;;;9.85;100.00;97606.69;5056674;28;20011;-59
2022/10/25 07:07:24;;;;;;;;;;;;;;;9.82;100.00;97601.75;5060550;28;20023;-59
2022/10/25 07:09:51;;;;;;;;;;;;;;;9.82;100.00;97601.75;5063977;28;20385;-59
2022/10/25 07:12:17;;;;;;;;;;;;;;;9.77;100.00;97602.50;5062375;28;20011;-59
2022/10/25 07:14:43;;;;;;;;;;;;;;;9.85;100.00;97617.53;5061438;28;19924;-59
2022/10/25 07:17:10;;;;;;;;;;;;;;;9.96;100.00;97608.53;5062272;28;20374;-53
2022/10/25 07:19:36;;;;;;;;;;;;;;;10.07;100.00;97614.13;5057803;28;19934;-55
2022/10/25 07:22:02;;;;;;;;;;;;;;;10.14;100.00;97618.31;5050322;28;19931;-56
2022/10/25 07:24:30;;;;;;;;;;;;;;;10.29;100.00;97625.09;5063506;28;19963;-58
2022/10/25 07:26:56;;;;;;;;;;;;;;;10.38;100.00;97628.19;5064568;28;19924;-59
2022/10/25 07:29:22;;;;;;;;;;;;;;;10.48;100.00;97617.59;5055277;28;20033;-60
2022/10/25 07:31:49;;;;;;;4.28;1.70;;;;;;;10.58;100.00;97616.13;5052690;28;19963;-59
2022/10/25 07:34:15;;;;;;;5.55;2.08;;;;;;;10.62;100.00;97612.66;5038878;28;20069;-58
2022/10/25 07:36:43;;;;;;;6.50;2.35;;;;;;;10.71;100.00;97614.94;5060929;28;20042;-59
2022/10/25 07:39:09;;;;;;;4.35;1.95;;;;;;;10.75;100.00;97619.63;5060744;28;20061;-58
2022/10/25 07:41:36;;;;;;;3.80;1.35;;;;;;;10.78;100.00;97618.31;5051967;28;20064;-60
2022/10/25 07:44:02;;;;;;;6.22;1.70;;;;;;;10.84;100.00;97628.16;5059489;28;20131;-59
2022/10/25 07:46:29;;;;;;;6.53;1.70;;;;;;;10.99;100.00;97619.44;5058827;28;20569;-59
2022/10/25 07:48:55;;;;;;;2.58;1.20;;;;;;;11.28;100.00;97616.59;5054151;28;20064;-60
2022/10/25 07:51:22;;;;;;;9.25;2.90;;;;;;;11.47;100.00;97607.34;5059038;28;20072;-59
2022/10/25 07:53:49;;;;;;;10.70;1.40;;;;;;;11.65;100.00;97611.63;5056081;28;20068;-60
2022/10/25 07:56:18;;;;;;;5.70;1.40;;;;;;;11.84;100.00;97610.22;5064222;28;20284;-59
2022/10/25 07:58:49;;;;;;;6.90;2.03;;;;;;;11.97;100.00;97611.72;5061389;28;20071;-59
2022/10/25 08:01:21;;;;;;;5.77;2.20;;;;;;;11.95;100.00;97616.56;5061926;28;20336;-59
2022/10/25 08:03:48;;;;;;;4.25;1.60;;;;;;;11.98;100.00;97617.97;5053840;28;20438;-60
2022/10/25 08:06:14;;;;;;;6.00;1.58;;;;;;;11.93;100.00;97615.19;5059933;28;20506;-60
2022/10/25 08:08:41;;;;;;;6.03;1.40;;;;;;;12.00;100.00;97620.41;5036105;28;20080;-59
2022/10/25 08:11:08;;;;;;;4.93;1.30;;;;;;;12.01;100.00;97617.44;5058652;28;20320;-60
2022/10/25 08:13:39;;;;;;;4.38;1.45;;;;;;;12.01;100.00;97614.72;5059474;28;20384;-59
2022/10/25 08:16:06;;;;;;;6.05;1.55;;;;;;;12.02;100.00;97624.50;5053898;28;20048;-62
2022/10/25 08:18:33;;;;;;;6.60;1.20;;;;;;;12.06;100.00;97622.94;5063253;28;20083;-59
2022/10/25 08:21:01;;;;;;;2.95;1.48;;;;;;;12.12;100.00;97620.31;5061410;28;19924;-57
2022/10/25 08:23:30;;;;;;;;;;;;;;;12.16;100.00;97624.97;5050320;28;20128;-59
2022/10/25 08:25:57;;;;;;;;;;;;;;;12.31;100.00;97620.78;5034431;28;19935;-58
2022/10/25 08:28:23;;;;;;;;;;;;;;;12.43;100.00;97618.72;5053825;28;19920;-60
2022/10/25 08:30:52;;;;;;;7.50;1.60;;;;;;;12.53;100.00;97614.44;5062683;28;20386;-59
2022/10/25 08:33:19;;;;;;;4.00;1.00;;;;;;;12.76;100.00;97613.28;5058699;28;20045;-65
2022/10/25 08:35:45;;;;;;;4.72;0.90;;;;;;;12.95;100.00;97619.13;5062712;28;20531;-59
2022/10/25 08:38:12;;;;;;;7.15;1.60;;;;;;;12.98;100.00;97610.41;5067057;28;20547;-59
2022/10/25 08:40:38;;;;;;;;;;;;;;;13.08;100.00;97615.09;5060147;28;20349;-60
2022/10/25 08:43:28;;;;;;;4.70;1.60;;;;;;;13.16;100.00;97616.50;5066407;28;19955;-60
2022/10/25 08:46:24;;;;;;;;;;;;;;;13.28;97.18;97613.59;5054674;28;20055;-57
2022/10/25 08:49:15;;;;;;;2.15;0.93;;;;;;;13.36;96.41;97617.72;5037423;28;19952;-60
2022/10/25 08:51:43;;;;;;;;;;;;;;;13.43;95.98;97618.28;5058063;28;20052;-60
2022/10/25 08:54:31;;;;;;;;;;;;;;;13.51;97.99;97623.25;5068457;28;20007;-60
2022/10/25 08:57:14;;;;;;;;;;;;;;;13.61;96.27;97617.06;5068519;28;20334;-59
2022/10/25 08:59:44;;;;;;;;;;;;;;;13.63;98.32;97606.72;5068561;28;19932;-58
2022/10/25 09:02:17;;;;;;;;;;;;;;;13.72;97.49;97608.91;5064269;28;19959;-61
2022/10/25 09:04:43;;;;;;;;;;;;;;;13.77;96.02;97609.75;5058578;28;19956;-60
2022/10/25 09:07:18;;;;;;;;;;;;;;;13.91;95.17;97610.09;5056418;28;20142;-61
2022/10/25 09:09:52;;;;;;;;;;;;;;;13.96;93.97;97613.91;5057020;28;20019;-59
2022/10/25 09:12:34;;;;;;;;;;;;;;;14.07;93.40;97626.44;5058268;28;20019;-60
2022/10/25 09:15:03;;;;;;;;;;;;;;;14.07;93.18;97621.00;5054242;28;19927;-59
2022/10/25 09:17:35;;;;;;;;;;;;;;;14.13;92.63;97621.81;5052755;28;20376;-60
2022/10/25 09:20:06;;;;;;;;;;;;;;;14.20;92.36;97624.28;5058709;28;19924;-60
2022/10/25 09:22:43;;;;;;;;;;;;;;;14.28;93.50;97627.31;5059142;28;19921;-60
2022/10/25 09:25:19;;;;;;;;;;;;;;;14.34;91.15;97625.38;5051833;28;20015;-60
2022/10/25 09:27:51;;;;;;;;;;;;;;;14.40;93.24;97618.03;5057700;28;19963;-61
2022/10/25 09:30:18;;;;;;;;;;;;;;;14.42;93.63;97626.78;5066095;28;19924;-61
2022/10/25 09:32:46;;;;;;;;;;;;;;;14.41;93.36;97615.06;5065436;28;20411;-61
2022/10/25 09:35:14;;;;;;;;;;;;;;;14.49;92.88;97623.78;5060986;28;19934;-62
2022/10/25 09:37:46;;;;;;;;;;;;;;;14.57;92.75;97620.53;5063670;28;20057;-61
2022/10/25 09:40:16;;;;;;;;;;;;;;;14.62;92.37;97623.25;5051135;28;19928;-60
2022/10/25 09:42:52;;;;;;;;;;;;;;;14.66;90.31;97618.88;5065734;28;19920;-59
2022/10/25 09:45:25;;;;;;;;;;;;;;;14.77;91.02;97618.91;5065972;28;19924;-59
2022/10/25 09:47:51;;;;;;;;;;;;;;;14.86;88.54;97628.19;5066007;28;19924;-59
2022/10/25 09:50:23;;;;;;;;;;;;;;;15.01;87.43;97621.06;5057831;28;19936;-59
2022/10/25 09:53:11;;;;;;;4.77;0.90;;;;;;;15.12;87.84;97622.69;5065230;28;19924;-59
2022/10/25 09:55:49;;;;;;;;;;;;;;;15.15;87.02;97613.94;5065461;28;19924;-59
2022/10/25 09:58:20;;;;;;;;;;;;;;;15.25;87.76;97621.28;5056310;28;19940;-57
2022/10/25 10:00:48;;;;;;;;;;;;;;;15.35;85.50;97620.47;5065578;28;19967;-58
2022/10/25 10:03:14;;;;;;;;;;;;;;;15.40;85.22;97627.81;5064524;28;20371;-58
2022/10/25 10:05:45;;;;;;;;;;;;;;;15.39;86.07;97618.81;5057663;28;20403;-61
2022/10/25 10:08:11;;;;;;;;;;;;;;;15.38;85.92;97633.56;5065279;28;19928;-59
2022/10/25 10:10:38;;;;;;;;;;;;;;;15.40;85.44;97634.06;5064540;28;20287;-59
2022/10/25 10:13:17;;;;;;;;;;;;;;;15.41;84.51;97630.25;5065254;28;19924;-58
2022/10/25 10:15:58;;;;;;;;;;;;;;;15.33;84.21;97631.63;5048325;28;19960;-60
2022/10/25 10:18:24;;;;;;;;;;;;;;;15.19;84.54;97625.13;5058071;28;20378;-59
2022/10/25 10:20:55;;;;;;;;;;;;;;;15.22;85.10;97627.28;5063924;28;20003;-59
2022/10/25 10:23:22;;;;;;;;;;;;;;;15.16;84.77;97626.50;5061457;28;19968;-60
2022/10/25 10:25:49;;;;;;;;;;;;;;;15.11;85.07;97623.78;5058943;28;19948;-60
2022/10/25 10:28:16;;;;;;;;;;;;;;;15.06;82.21;97616.44;5064496;28;20431;-59
2022/10/25 10:30:51;;;;;;;;;;;;;;;14.95;80.26;97623.81;5064668;28;19924;-60
2022/10/25 10:33:17;;;;;;;;;;;;;;;14.93;82.44;97625.97;5059826;28;20575;-61
2022/10/25 10:35:43;;;;;;;;;;;;;;;14.86;80.31;97614.56;5052429;28;20019;-61
2022/10/25 10:38:24;;;;;;;;;;;;;;;14.84;80.24;97616.72;5057299;28;19927;-61
2022/10/25 10:40:51;;;;;;;;;;;;;;;14.81;82.72;97615.38;5062389;28;20015;-60
2022/10/25 10:43:30;;;;;;;;;;;;;;;14.72;84.04;97614.25;5064827;28;19959;-60
2022/10/25 10:46:00;;;;;;;;;;;;;;;14.75;83.32;97608.28;5063801;28;20019;-59
2022/10/25 10:48:30;;;;;;;;;;;;;;;14.90;83.81;97602.00;5064751;28;20363;-60
2022/10/25 10:50:56;;;;;;;;;;;;;;;15.00;80.45;97598.44;5063998;28;20387;-60
2022/10/25 10:53:31;;;;;;;;;;;;;;;15.07;81.76;97592.69;5064672;28;20011;-59
2022/10/25 10:56:00;;;;;;;;;;;;;;;14.94;84.26;97594.91;5064516;28;20435;-59
2022/10/25 10:58:31;;;;;;;;;;;;;;;14.91;85.36;97590.00;5057218;28;20409;-59
2022/10/25 11:00:59;;;;;;;;;;;;;;;14.89;86.90;97594.91;5059504;28;19959;-59
2022/10/25 11:03:37;;;;;;;;;;;;;;;14.86;88.99;97595.47;5054767;28;19920;-60
2022/10/25 11:06:14;;;;;;;;;;;;;;;14.85;91.19;97607.44;5053559;28;20011;-59
2022/10/25 11:08:42;;;;;;;;;;;;;;;14.69;88.02;97599.28;5061863;28;19930;-59
2022/10/25 11:11:18;;;;;;;;;;;;;;;14.48;95.85;97594.91;5052041;28;19978;-60
2022/10/25 11:13:57;;;;;;;;;;;;;;;14.55;95.15;97596.28;5062809;28;20462;-60
2022/10/25 11:16:36;;;;;;;;;;;;;;;14.67;95.63;97589.75;5064061;28;20334;-60
2022/10/25 11:19:18;;;;;;;;;;;;;;;14.69;95.02;97587.53;5061116;28;19924;-60
2022/10/25 11:22:04;;;;;;;;;;;;;;;14.70;94.95;97591.91;5063592;28;19987;-60
2022/10/25 11:24:49;;;;;;;;;;;;;;;14.75;94.09;97588.38;5063425;28;20405;-61
2022/10/25 11:27:15;;;;;;;;;;;;;;;14.79;93.35;97593.03;5064291;28;19963;-59
2022/10/25 11:29:51;;;;;;;;;;;;;;;14.74;91.73;97597.63;5063314;28;20303;-59
2022/10/25 11:32:37;;;;;;;;;;;;;;;14.60;92.64;97600.91;5063392;28;20047;-59
2022/10/25 11:35:14;;;;;;;;;;;;;;;14.46;93.63;97597.91;5078990;28;20034;-60
2022/10/25 11:37:46;;;;;;;;;;;;;;;14.45;93.89;97599.00;5056348;28;19986;-60
2022/10/25 11:40:18;;;;;;;;;;;;;;;14.53;94.58;97603.09;5062815;28;20403;-59
2022/10/25 11:42:51;;;;;;;;;;;;;;;14.61;94.65;97602.53;5076123;28;19959;-60
2022/10/25 11:45:38;;;;;;;;;;;;;;;14.70;94.87;97600.91;5063989;28;19924;-60
2022/10/25 11:48:23;;;;;;;;;;;;;;;14.87;94.14;97599.00;5050736;28;20399;-60
2022/10/25 11:51:13;;;;;;;;;;;;;;;14.90;93.13;97590.28;5057949;28;19971;-58
2022/10/25 11:53:42;;;;;;;;;;;;;;;15.07;92.42;97595.41;5051551;28;20028;-60
2022/10/25 11:56:09;;;;;;;;;;;;;;;15.12;91.23;97595.44;5063907;28;19995;-61
2022/10/25 11:58:35;;;;;;;;;;;;;;;15.14;91.54;97598.69;5064045;28;20457;-59
2022/10/25 12:01:20;;;;;;;;;;;;;;;15.27;90.88;97604.66;5049907;28;19924;-61
2022/10/25 12:04:35;;;;;;;5.43;1.00;;;;;;;15.40;90.31;97603.25;5061454;28;20423;-60
2022/10/25 12:07:08;;;;;;;3.63;1.05;;;;;;;15.59;89.04;97603.47;5044162;28;20044;-60
2022/10/25 12:09:49;;;;;;;4.75;0.80;;;;;;;15.80;87.30;97606.91;5062611;28;20494;-59
2022/10/25 12:12:20;;;;;;;5.22;1.50;;;;;;;15.83;87.74;97597.34;5056396;28;20117;-60
2022/10/25 12:14:53;;;;;;;4.50;1.13;;;;;;;15.76;88.74;97600.38;5060449;28;20424;-60
2022/10/25 12:17:26;;;;;;;3.03;1.20;;;;;;;15.78;87.33;97600.09;5066675;28;20052;-59
2022/10/25 12:19:56;;;;;;;4.43;1.00;;;;;;;15.68;86.80;97590.88;5061764;28;20051;-59
2022/10/25 12:22:27;;;;;;;5.03;1.33;;;;;;;15.71;86.22;97590.28;5066451;28;20127;-59
2022/10/25 12:25:01;;;;;;;9.35;2.72;;;;;;;15.82;84.76;97590.25;5062136;28;20044;-60
2022/10/25 12:27:28;;;;;;;5.25;1.45;;;;;;;15.93;84.48;97585.56;5066838;28;20072;-59
2022/10/25 12:30:00;;;;;;;4.10;1.33;;;;;;;15.94;84.86;97576.25;5061041;28;20068;-60
2022/10/25 12:32:40;;;;;;;5.82;1.65;;;;;;;16.01;84.54;97585.00;5064792;28;20072;-60
2022/10/25 12:35:19;;;;;;;8.50;3.15;;;;;;;15.86;86.10;97594.06;5053388;28;20337;-57
2022/10/25 12:37:51;;;;;;;6.85;1.85;;;;;;;15.80;84.85;97590.53;5049146;28;20072;-59
2022/10/25 12:40:24;;;;;;;43.83;27.05;;;;;;;15.88;85.11;97591.06;5066286;28;20462;-59
2022/10/25 12:43:12;;;;;;;31.48;18.88;;;;;;;15.89;85.24;97587.22;5065876;28;20568;-59
2022/10/25 12:46:16;;;;;;;18.10;10.70;;;;;;;15.96;81.79;97585.81;5059717;28;20133;-60